TAF KECG
KECG 072321Z 0800/0824 05007KT P6SM BKN050 FM080600 04005KT P6SM OVC035 FM081100 04007KT 6SM -RA OVC015 FM081500 02009KT 4SM RA BR OVC006 FM082100 35008KT P6SM OVC012=
METAR KECG
WC KECG
WS KECG
WV KECG